Time;durP1;ratioP1;P1;durP2;ratioP2;P2;SDS_P1;SDS_P2;PMS_P1;PMS_P2;Temp;Humidity;BMP_temperature;BMP_pressure;BME280_temperature;BME280_humidity;BME280_pressure;Samples;Min_cycle;Max_cycle;Signal;HPM_P1;HPM_P2
2021/01/26 00:01:11;;;;;;;10.23;1.83;;;13.20;99.90;;;;;;4706729;30;20041;-85
2021/01/26 00:03:37;;;;;;;4.40;1.33;;;13.20;99.90;;;;;;4714365;30;20042;-89
2021/01/26 00:06:04;;;;;;;8.80;2.45;;;13.20;99.90;;;;;;4715714;30;20372;-84
2021/01/26 00:08:30;;;;;;;10.90;2.40;;;13.20;99.90;;;;;;4713790;30;20039;-88
2021/01/26 00:10:57;;;;;;;11.57;2.72;;;13.20;99.90;;;;;;4696342;30;20198;-82
2021/01/26 00:13:23;;;;;;;8.15;2.35;;;13.20;99.90;;;;;;4714118;30;20033;-82
2021/01/26 00:15:49;;;;;;;10.13;1.88;;;13.20;99.90;;;;;;4714588;30;20072;-85
2021/01/26 00:18:16;;;;;;;7.43;2.13;;;13.20;99.90;;;;;;4713883;30;20119;-84
2021/01/26 00:20:43;;;;;;;11.13;2.17;;;13.20;99.90;;;;;;4712317;30;20032;-85
2021/01/26 00:23:11;;;;;;;7.20;1.73;;;13.10;99.90;;;;;;4714544;30;20131;-89
2021/01/26 00:25:40;;;;;;;12.35;1.70;;;13.10;99.90;;;;;;4713730;30;20048;-85
2021/01/26 00:28:08;;;;;;;16.02;2.22;;;13.10;99.90;;;;;;4713325;30;20191;-85
2021/01/26 00:30:36;;;;;;;11.63;2.90;;;13.10;99.90;;;;;;4711454;30;20037;-84
2021/01/26 00:33:06;;;;;;;6.18;1.50;;;13.00;99.90;;;;;;4713843;30;20042;-83
2021/01/26 00:35:32;;;;;;;10.52;2.55;;;13.10;99.90;;;;;;4714313;30;20033;-84
2021/01/26 00:38:00;;;;;;;8.85;2.38;;;13.10;99.90;;;;;;4715024;30;20025;-80
2021/01/26 00:40:27;;;;;;;10.65;2.33;;;13.10;99.90;;;;;;4714441;30;20033;-84
2021/01/26 00:42:53;;;;;;;9.93;2.83;;;13.10;99.90;;;;;;4713257;30;20037;-82
2021/01/26 00:45:20;;;;;;;9.32;1.85;;;13.10;99.90;;;;;;4713878;30;20175;-87
2021/01/26 00:47:46;;;;;;;10.05;2.10;;;13.10;99.90;;;;;;4707695;30;20047;-84
2021/01/26 00:50:14;;;;;;;8.82;2.40;;;13.10;99.90;;;;;;4713188;30;20044;-85
2021/01/26 00:52:40;;;;;;;8.88;2.80;;;13.20;99.90;;;;;;4712253;30;20040;-81
2021/01/26 00:55:20;;;;;;;4.00;1.63;;;13.10;99.90;;;;;;4711775;30;20045;-84
2021/01/26 00:57:47;;;;;;;5.28;1.73;;;13.00;99.90;;;;;;4708614;30;20539;-87
2021/01/26 01:00:25;;;;;;;8.40;1.58;;;13.10;99.90;;;;;;4713153;30;20033;-88
2021/01/26 01:02:53;;;;;;;8.20;2.33;;;13.10;99.90;;;;;;4713428;30;20135;-83
2021/01/26 01:05:19;;;;;;;10.63;1.73;;;13.10;99.90;;;;;;4714007;30;20108;-82
2021/01/26 01:07:46;;;;;;;6.75;1.92;;;13.00;99.90;;;;;;4713594;30;20527;-82
2021/01/26 01:10:15;;;;;;;11.18;2.03;;;13.00;99.90;;;;;;4714476;30;20396;-84
2021/01/26 01:12:41;;;;;;;5.20;1.60;;;13.00;99.90;;;;;;4711707;30;20491;-82
2021/01/26 01:15:08;;;;;;;2.90;1.20;;;13.00;99.90;;;;;;4714193;30;20506;-82
2021/01/26 01:17:34;;;;;;;6.57;1.50;;;13.00;99.90;;;;;;4714755;30;20033;-80
2021/01/26 01:20:00;;;;;;;14.32;2.47;;;13.00;99.90;;;;;;4714289;30;20029;-81
2021/01/26 01:22:27;;;;;;;17.48;2.60;;;13.00;99.90;;;;;;4714393;30;20166;-81
2021/01/26 07:50:30;;;;;;;7.75;1.20;;;8.50;99.90;;;;;;5553133;24;20077;-77
2021/01/26 07:53:33;;;;;;;2.92;0.98;;;8.50;99.90;;;;;;4732825;30;20080;-76
2021/01/26 07:56:25;;;;;;;3.10;1.05;;;8.50;99.90;;;;;;4730399;30;20531;-77
2021/01/26 07:58:52;;;;;;;3.03;1.08;;;8.60;99.90;;;;;;4729630;30;20025;-76
2021/01/26 08:01:25;;;;;;;4.40;1.23;;;8.50;99.90;;;;;;4732223;30;20036;-76
2021/01/26 08:03:52;;;;;;;8.80;1.20;;;8.50;99.90;;;;;;4732135;30;20552;-77
2021/01/26 08:06:36;;;;;;;2.72;0.90;;;8.50;99.90;;;;;;4732725;30;20049;-76
2021/01/26 08:09:06;;;;;;;2.85;0.60;;;8.50;99.90;;;;;;4731541;30;20024;-76
2021/01/26 08:11:33;;;;;;;4.90;1.50;;;8.50;99.90;;;;;;4731818;30;20045;-76
2021/01/26 08:13:59;;;;;;;2.17;1.27;;;8.60;99.90;;;;;;4732947;30;20044;-76
2021/01/26 08:16:30;;;;;;;4.82;1.50;;;8.60;99.90;;;;;;4734032;30;20048;-76
2021/01/26 08:19:01;;;;;;;6.00;1.88;;;8.50;99.90;;;;;;4731417;30;20060;-77
2021/01/26 08:21:38;;;;;;;5.25;0.90;;;8.50;99.90;;;;;;4737343;30;20059;-77
2021/01/26 08:24:21;;;;;;;5.47;1.05;;;8.50;99.90;;;;;;4731107;30;20367;-76
2021/01/26 08:26:49;;;;;;;5.63;2.00;;;8.50;99.90;;;;;;4733644;30;20036;-77
2021/01/26 08:29:48;;;;;;;3.92;0.77;;;8.50;99.90;;;;;;4731821;30;20032;-77
2021/01/26 08:32:26;;;;;;;7.95;1.15;;;8.50;99.90;;;;;;4704806;30;20122;-76
2021/01/26 08:35:04;;;;;;;4.47;1.00;;;8.50;99.90;;;;;;4732110;30;20029;-77
2021/01/26 08:37:57;;;;;;;6.05;1.80;;;8.50;99.90;;;;;;4734558;30;20394;-77
2021/01/26 08:40:29;;;;;;;3.67;1.20;;;8.50;99.90;;;;;;4730810;30;20041;-75
2021/01/26 08:43:04;;;;;;;3.28;1.33;;;8.50;99.90;;;;;;4732794;30;20039;-77
2021/01/26 08:45:32;;;;;;;2.97;0.98;;;8.50;99.90;;;;;;4733037;30;20106;-77
2021/01/26 08:48:00;;;;;;;6.97;3.03;;;8.50;99.90;;;;;;4731362;30;20037;-77
2021/01/26 08:50:33;;;;;;;4.65;2.25;;;8.50;99.90;;;;;;4730429;30;20038;-74
2021/01/26 08:53:17;;;;;;;4.10;1.90;;;8.50;99.90;;;;;;4733968;30;20048;-74
2021/01/26 08:55:46;;;;;;;3.30;1.20;;;8.50;99.90;;;;;;4732834;30;20099;-75
2021/01/26 08:58:34;;;;;;;6.35;2.13;;;8.50;99.90;;;;;;4732468;30;20024;-79
2021/01/26 09:01:00;;;;;;;8.88;1.58;;;8.50;99.90;;;;;;4731896;30;20123;-76
2021/01/26 09:03:42;;;;;;;4.10;1.33;;;8.50;99.90;;;;;;4731346;30;20626;-78
2021/01/26 09:06:26;;;;;;;5.18;1.23;;;8.40;99.90;;;;;;4730733;30;20079;-77
2021/01/26 09:08:58;;;;;;;5.50;0.93;;;8.40;99.90;;;;;;4738491;30;20836;-77
2021/01/26 09:11:45;;;;;;;5.30;1.10;;;8.40;99.90;;;;;;4730779;30;20333;-75
2021/01/26 09:14:22;;;;;;;7.40;1.40;;;8.40;99.90;;;;;;4730854;30;20047;-76
2021/01/26 09:17:00;;;;;;;4.43;1.33;;;8.30;99.90;;;;;;4730789;30;20090;-74
2021/01/26 09:19:39;;;;;;;3.90;1.88;;;8.40;99.90;;;;;;4730716;30;20115;-74
2021/01/26 09:22:12;;;;;;;4.70;1.20;;;8.40;99.90;;;;;;4731398;30;20041;-74
2021/01/26 09:24:39;;;;;;;1.67;1.15;;;8.50;99.90;;;;;;4731059;30;20126;-74
2021/01/26 09:27:21;;;;;;;3.22;1.35;;;8.60;99.90;;;;;;4731070;30;20029;-75
2021/01/26 09:29:47;;;;;;;2.63;1.02;;;8.60;99.90;;;;;;4730689;30;20043;-75
2021/01/26 09:32:17;;;;;;;2.63;0.90;;;8.70;99.90;;;;;;4732700;30;20363;-75
2021/01/26 09:34:43;;;;;;;6.53;1.50;;;8.70;99.90;;;;;;4732859;30;20051;-75
2021/01/26 09:37:23;;;;;;;2.55;0.98;;;8.60;99.90;;;;;;4729377;30;20048;-76
2021/01/26 09:39:50;;;;;;;2.42;1.05;;;8.70;99.90;;;;;;4728728;30;20101;-74
2021/01/26 09:42:21;;;;;;;3.42;1.33;;;8.70;99.90;;;;;;4733197;30;20117;-75
2021/01/26 09:45:09;;;;;;;4.20;1.27;;;8.80;99.90;;;;;;4731422;30;20043;-75
2021/01/26 09:47:35;;;;;;;5.72;1.58;;;8.80;99.90;;;;;;4730977;30;20033;-75
2021/01/26 09:50:13;;;;;;;2.75;1.10;;;8.80;99.90;;;;;;4731468;30;21247;-77
2021/01/26 09:52:40;;;;;;;4.88;1.15;;;8.80;99.90;;;;;;4731918;30;20536;-76
2021/01/26 09:55:10;;;;;;;4.35;1.70;;;8.80;99.90;;;;;;4729795;30;20036;-75
2021/01/26 09:57:38;;;;;;;5.72;2.10;;;8.80;99.90;;;;;;4730312;30;20043;-75
2021/01/26 10:00:14;;;;;;;9.50;1.20;;;8.80;99.90;;;;;;4730678;30;20044;-77
2021/01/26 10:02:42;;;;;;;3.47;1.45;;;8.80;99.90;;;;;;4729952;30;20033;-77
2021/01/26 10:05:14;;;;;;;3.47;1.17;;;8.80;99.90;;;;;;4730499;30;20402;-78
2021/01/26 10:07:40;;;;;;;4.68;1.55;;;8.80;99.90;;;;;;4725235;30;20490;-77
2021/01/26 10:10:22;;;;;;;5.82;1.55;;;8.70;99.90;;;;;;4729020;30;20123;-78
2021/01/26 10:12:48;;;;;;;12.20;2.17;;;8.70;99.90;;;;;;4729071;30;20067;-79
2021/01/26 10:15:24;;;;;;;5.18;1.80;;;8.80;99.90;;;;;;4729116;30;20044;-80
2021/01/26 10:17:59;;;;;;;5.05;1.40;;;8.80;99.90;;;;;;4716502;30;20384;-79
2021/01/26 10:20:29;;;;;;;4.38;1.55;;;8.90;99.90;;;;;;4728833;30;20033;-79
2021/01/26 10:23:21;;;;;;;4.65;1.88;;;8.90;99.90;;;;;;4731037;30;20040;-79
2021/01/26 10:25:48;;;;;;;5.78;1.30;;;9.00;99.90;;;;;;4725400;30;20040;-80
2021/01/26 10:28:27;;;;;;;3.40;1.38;;;9.10;99.90;;;;;;4733503;30;20094;-79
2021/01/26 10:30:55;;;;;;;6.03;3.58;;;9.10;99.90;;;;;;4731637;30;20124;-79
2021/01/26 10:33:39;;;;;;;11.15;2.40;;;9.20;99.90;;;;;;4733994;30;20039;-80
2021/01/26 10:36:20;;;;;;;2.25;1.00;;;9.20;99.90;;;;;;4732691;30;20666;-78
2021/01/26 10:38:49;;;;;;;4.70;2.30;;;9.20;99.90;;;;;;4731386;30;20167;-78
2021/01/26 10:41:27;;;;;;;7.00;2.95;;;9.20;99.90;;;;;;4736324;30;20517;-78
2021/01/26 10:44:14;;;;;;;4.32;1.90;;;9.20;99.90;;;;;;4734374;30;20040;-78
2021/01/26 10:46:46;;;;;;;11.05;4.50;;;9.10;99.90;;;;;;4724744;30;20041;-79
2021/01/26 10:49:21;;;;;;;13.15;5.88;;;9.00;99.90;;;;;;4735303;30;20060;-79
2021/01/26 10:51:47;;;;;;;15.40;5.78;;;9.10;99.90;;;;;;4734448;30;20102;-78
2021/01/26 10:54:14;;;;;;;16.77;5.47;;;9.10;99.90;;;;;;4733194;30;20086;-78
2021/01/26 10:56:43;;;;;;;9.05;3.22;;;9.10;99.90;;;;;;4733453;30;20052;-79
2021/01/26 10:59:10;;;;;;;6.93;2.75;;;9.10;99.90;;;;;;4734313;30;20078;-79
2021/01/26 11:01:40;;;;;;;9.88;2.63;;;9.10;99.90;;;;;;4732889;30;20441;-78
2021/01/26 11:04:12;;;;;;;8.80;2.28;;;9.10;99.90;;;;;;4734197;30;20064;-78
2021/01/26 11:06:40;;;;;;;2.92;1.45;;;9.20;99.90;;;;;;4730240;30;20116;-78
2021/01/26 11:09:08;;;;;;;2.45;1.70;;;9.30;99.90;;;;;;4737137;30;20901;-80
2021/01/26 11:11:36;;;;;;;4.45;0.88;;;9.40;99.90;;;;;;4735926;30;20036;-79
2021/01/26 11:14:11;;;;;;;2.05;0.95;;;9.30;99.90;;;;;;4734323;30;20035;-78
2021/01/26 11:16:40;;;;;;;3.20;0.80;;;9.40;99.90;;;;;;4730754;30;20120;-78
2021/01/26 11:19:10;;;;;;;1.02;0.68;;;9.50;99.90;;;;;;4731977;30;20035;-80
2021/01/26 11:21:41;;;;;;;3.08;0.70;;;9.50;99.90;;;;;;4733926;30;20457;-76
2021/01/26 11:24:12;;;;;;;4.47;1.52;;;9.60;99.90;;;;;;4737990;30;20024;-76
2021/01/26 11:26:48;;;;;;;3.63;1.10;;;9.70;99.90;;;;;;4731717;30;20041;-75
2021/01/26 11:29:19;;;;;;;3.40;1.05;;;9.70;99.90;;;;;;4731916;30;20051;-75
2021/01/26 11:31:47;;;;;;;3.13;1.00;;;9.60;99.90;;;;;;4731913;30;20104;-75
2021/01/26 11:34:13;;;;;;;3.40;0.90;;;9.60;99.90;;;;;;4732039;30;20517;-74
2021/01/26 11:36:40;;;;;;;2.55;1.23;;;9.50;99.90;;;;;;4732466;30;20080;-74
2021/01/26 11:39:09;;;;;;;0.75;0.73;;;9.40;99.90;;;;;;4733752;30;20033;-75
2021/01/26 11:41:46;;;;;;;2.97;0.82;;;9.30;99.90;;;;;;4732760;30;20029;-75
2021/01/26 11:44:16;;;;;;;2.50;1.08;;;9.40;99.90;;;;;;4732554;30;20025;-75
2021/01/26 11:46:43;;;;;;;1.48;0.50;;;9.40;99.90;;;;;;4732707;30;20032;-75
2021/01/26 11:49:09;;;;;;;2.40;0.45;;;9.40;99.90;;;;;;4734468;30;20039;-74
2021/01/26 11:51:35;;;;;;;2.97;1.15;;;9.40;99.90;;;;;;4732454;30;20052;-75
2021/01/26 11:54:01;;;;;;;2.28;1.52;;;9.50;99.90;;;;;;4732977;30;20040;-78
2021/01/26 11:56:27;;;;;;;3.40;1.15;;;9.50;99.90;;;;;;4732444;30;20169;-75
2021/01/26 11:58:54;;;;;;;4.03;1.25;;;9.50;99.90;;;;;;4733190;30;20035;-77
2021/01/26 12:01:20;;;;;;;0.98;0.60;;;9.50;99.90;;;;;;4732835;30;20044;-76
2021/01/26 12:03:46;;;;;;;4.15;0.73;;;9.40;99.90;;;;;;4731550;30;20458;-79
2021/01/26 12:06:12;;;;;;;4.25;1.15;;;9.40;99.90;;;;;;4731108;30;20131;-76
2021/01/26 12:08:39;;;;;;;2.00;1.10;;;9.40;99.90;;;;;;4732628;30;20041;-76
2021/01/26 12:11:06;;;;;;;2.50;1.25;;;9.40;99.90;;;;;;4732285;30;20036;-77
2021/01/26 12:13:32;;;;;;;8.13;1.88;;;9.40;99.90;;;;;;4732843;30;20057;-76
2021/01/26 12:15:58;;;;;;;1.27;0.80;;;9.50;99.90;;;;;;4734340;30;20055;-75
2021/01/26 12:18:24;;;;;;;8.88;1.50;;;9.50;99.90;;;;;;4729545;30;20028;-77
2021/01/26 12:20:52;;;;;;;4.82;1.50;;;9.60;99.90;;;;;;4731630;30;20032;-79
2021/01/26 12:23:18;;;;;;;2.72;0.82;;;9.60;99.90;;;;;;4732750;30;20498;-78
2021/01/26 12:25:44;;;;;;;2.90;0.80;;;9.50;99.90;;;;;;4732056;30;20094;-76
2021/01/26 12:28:12;;;;;;;3.67;1.13;;;9.50;99.90;;;;;;4731772;30;20081;-76
2021/01/26 12:30:39;;;;;;;3.38;0.85;;;9.40;99.90;;;;;;4731980;30;20045;-76
2021/01/26 12:33:06;;;;;;;1.23;0.90;;;9.30;99.90;;;;;;4732604;30;20037;-76
2021/01/26 12:35:36;;;;;;;7.55;1.00;;;9.40;99.90;;;;;;4730245;30;20451;-76
2021/01/26 12:38:04;;;;;;;2.53;1.30;;;9.60;99.90;;;;;;4732707;30;20104;-76
2021/01/26 12:40:32;;;;;;;0.77;0.45;;;9.80;99.90;;;;;;4732500;30;20035;-77
2021/01/26 12:43:00;;;;;;;3.60;0.60;;;9.70;99.90;;;;;;4732421;30;20060;-77
2021/01/26 12:45:29;;;;;;;2.42;0.55;;;9.70;99.90;;;;;;4731169;30;20033;-77
2021/01/26 12:47:55;;;;;;;0.75;0.70;;;9.60;99.90;;;;;;4731129;30;20395;-77
2021/01/26 12:50:28;;;;;;;2.97;1.77;;;9.70;99.90;;;;;;4731567;30;20395;-77
2021/01/26 12:52:54;;;;;;;2.65;1.13;;;9.90;99.90;;;;;;4732094;30;20829;-77
2021/01/26 12:55:21;;;;;;;1.92;0.88;;;10.10;99.90;;;;;;4734870;30;20033;-77
2021/01/26 12:57:47;;;;;;;0.95;0.60;;;10.40;99.90;;;;;;4734477;30;20041;-77
2021/01/26 13:00:17;;;;;;;1.63;0.43;;;10.50;99.90;;;;;;4733759;30;20402;-76
2021/01/26 13:02:44;;;;;;;3.95;0.68;;;10.50;99.90;;;;;;4730723;30;20072;-76
2021/01/26 13:05:12;;;;;;;1.90;0.82;;;10.40;99.90;;;;;;4732111;30;20029;-76
2021/01/26 13:07:38;;;;;;;2.88;1.20;;;10.60;99.90;;;;;;4732345;30;20035;-77
2021/01/26 13:10:06;;;;;;;1.08;0.98;;;10.60;99.90;;;;;;4731189;30;20063;-77
2021/01/26 13:12:33;;;;;;;6.47;1.00;;;10.70;99.90;;;;;;4730277;30;20047;-77
2021/01/26 13:14:59;;;;;;;2.75;1.13;;;10.90;99.90;;;;;;4732411;30;20033;-76
2021/01/26 13:17:25;;;;;;;1.83;0.93;;;11.10;99.90;;;;;;4731933;30;20033;-77
2021/01/26 13:19:52;;;;;;;0.98;0.70;;;11.30;99.90;;;;;;4732819;30;20436;-77
2021/01/26 13:22:18;;;;;;;0.50;0.50;;;11.40;99.90;;;;;;4733871;30;20838;-78
2021/01/26 13:24:45;;;;;;;3.25;0.90;;;11.30;99.90;;;;;;4732115;30;20032;-77
2021/01/26 13:27:13;;;;;;;1.83;0.90;;;11.30;99.90;;;;;;4732382;30;20028;-77
2021/01/26 13:29:39;;;;;;;1.70;0.95;;;11.20;99.90;;;;;;4730681;30;20029;-77
2021/01/26 13:32:07;;;;;;;2.25;0.70;;;11.20;99.90;;;;;;4735032;30;20099;-77
2021/01/26 13:34:33;;;;;;;2.65;0.85;;;11.20;99.90;;;;;;4730975;30;20066;-77
2021/01/26 13:37:00;;;;;;;5.53;0.60;;;11.00;99.90;;;;;;4730849;30;20052;-76
2021/01/26 13:39:26;;;;;;;1.35;0.95;;;10.60;99.90;;;;;;4731176;30;20521;-76
2021/01/26 13:41:56;;;;;;;3.15;1.05;;;10.40;99.90;;;;;;4730448;30;20041;-77
2021/01/26 13:44:23;;;;;;;2.17;0.55;;;10.10;99.90;;;;;;4731186;30;20028;-76
2021/01/26 13:46:50;;;;;;;0.57;0.50;;;9.40;99.90;;;;;;4729765;30;20071;-76
2021/01/26 13:49:17;;;;;;;3.28;1.23;;;8.80;99.90;;;;;;4733161;30;20114;-76
2021/01/26 13:51:43;;;;;;;0.55;0.50;;;8.60;99.90;;;;;;4735113;30;20161;-76
2021/01/26 13:54:10;;;;;;;1.80;1.00;;;8.40;99.90;;;;;;4730893;30;20596;-76
2021/01/26 13:56:37;;;;;;;0.98;0.65;;;8.40;99.90;;;;;;4731833;30;20044;-75
2021/01/26 13:59:04;;;;;;;2.55;1.10;;;8.40;99.90;;;;;;4731352;30;20048;-76
2021/01/26 14:01:30;;;;;;;0.52;0.52;;;8.40;99.90;;;;;;4730826;30;20064;-76
2021/01/26 14:03:56;;;;;;;1.65;1.08;;;8.40;99.90;;;;;;4730438;30;20044;-77
2021/01/26 14:06:23;;;;;;;1.65;1.13;;;8.30;99.90;;;;;;4733624;30;20044;-75
2021/01/26 14:08:50;;;;;;;0.75;0.70;;;8.20;99.90;;;;;;4732150;30;20060;-75
2021/01/26 14:11:16;;;;;;;2.80;1.35;;;8.20;99.90;;;;;;4730720;30;20029;-75
2021/01/26 14:13:42;;;;;;;3.78;1.10;;;8.20;99.90;;;;;;4729894;30;20367;-81
2021/01/26 14:16:10;;;;;;;4.95;1.15;;;8.40;99.90;;;;;;4733658;30;20040;-80
2021/01/26 14:18:36;;;;;;;3.17;0.98;;;8.60;99.90;;;;;;4728942;30;20025;-81
2021/01/26 14:21:03;;;;;;;5.65;1.10;;;9.10;99.90;;;;;;4729468;30;20060;-80
2021/01/26 14:23:29;;;;;;;1.25;1.10;;;9.60;99.90;;;;;;4730993;30;20433;-80
2021/01/26 14:25:55;;;;;;;3.20;0.90;;;10.10;99.90;;;;;;4730183;30;20499;-79
2021/01/26 14:28:21;;;;;;;2.20;1.08;;;10.50;99.90;;;;;;4731157;30;20041;-80
2021/01/26 14:30:47;;;;;;;2.13;0.60;;;10.70;99.90;;;;;;4731893;30;20041;-80
2021/01/26 14:33:14;;;;;;;0.70;0.68;;;10.90;99.90;;;;;;4707950;30;20041;-80
2021/01/26 14:35:40;;;;;;;4.70;1.23;;;10.90;99.90;;;;;;4730070;30;20121;-80
2021/01/26 14:38:07;;;;;;;1.25;1.10;;;11.20;99.90;;;;;;4729830;30;20060;-81
2021/01/26 14:40:33;;;;;;;5.72;0.88;;;11.20;99.90;;;;;;4729944;30;20033;-81
2021/01/26 14:43:00;;;;;;;0.93;0.80;;;11.10;99.90;;;;;;4730726;30;20123;-79
2021/01/26 14:45:27;;;;;;;4.50;1.65;;;11.10;99.90;;;;;;4728558;30;20438;-81
2021/01/26 14:47:54;;;;;;;4.30;1.17;;;11.00;99.90;;;;;;4729719;30;20071;-82
2021/01/26 14:50:23;;;;;;;2.45;1.08;;;10.90;99.90;;;;;;4728706;30;20036;-82
2021/01/26 14:52:49;;;;;;;1.00;0.70;;;10.80;99.90;;;;;;4734981;30;20535;-83
2021/01/26 14:55:16;;;;;;;4.55;1.13;;;10.70;99.90;;;;;;4719695;30;20089;-82
2021/01/26 14:57:43;;;;;;;3.25;1.02;;;10.70;99.90;;;;;;4733270;30;20036;-82
2021/01/26 15:00:12;;;;;;;1.08;0.57;;;10.60;99.80;;;;;;4730815;30;20457;-84
2021/01/26 15:02:38;;;;;;;2.95;0.90;;;10.50;99.60;;;;;;4729944;30;20072;-82
2021/01/26 15:05:05;;;;;;;2.50;1.40;;;10.60;99.90;;;;;;4730322;30;20547;-82
2021/01/26 15:07:31;;;;;;;2.95;0.50;;;10.60;99.60;;;;;;4728758;30;20079;-81
2021/01/26 15:09:57;;;;;;;5.10;0.93;;;10.50;98.10;;;;;;4731078;30;20119;-81
2021/01/26 15:12:24;;;;;;;3.67;0.70;;;10.50;97.50;;;;;;4731690;30;20032;-82
2021/01/26 15:14:49;;;;;;;1.02;0.70;;;10.40;97.90;;;;;;4731891;30;20037;-82
2021/01/26 15:17:16;;;;;;;0.93;0.47;;;10.40;98.50;;;;;;4734167;30;20470;-83
2021/01/26 15:19:42;;;;;;;6.97;1.63;;;10.40;97.20;;;;;;4733776;30;20398;-82
2021/01/26 15:22:11;;;;;;;2.92;1.13;;;10.30;98.00;;;;;;4731131;30;20067;-82
2021/01/26 15:24:41;;;;;;;3.83;1.25;;;10.30;98.10;;;;;;4718636;30;20056;-82
2021/01/26 15:27:07;;;;;;;1.08;0.75;;;10.30;98.50;;;;;;4744811;30;20037;-82
2021/01/26 15:29:33;;;;;;;6.80;2.40;;;10.20;98.20;;;;;;4733016;30;20039;-81
2021/01/26 15:32:00;;;;;;;2.15;0.90;;;10.10;98.70;;;;;;4718913;30;20032;-82
2021/01/26 15:34:27;;;;;;;2.38;1.08;;;10.10;96.50;;;;;;4709690;30;20604;-81
2021/01/26 15:36:53;;;;;;;1.95;0.80;;;9.80;95.80;;;;;;4731785;30;20040;-82
2021/01/26 15:39:20;;;;;;;2.85;1.00;;;9.70;95.50;;;;;;4733185;30;20067;-82
2021/01/26 15:41:46;;;;;;;0.40;0.40;;;9.60;95.40;;;;;;4722312;30;20136;-82
2021/01/26 15:44:13;;;;;;;2.63;0.70;;;9.40;94.00;;;;;;4731707;30;20043;-82
2021/01/26 15:46:40;;;;;;;1.45;0.80;;;9.40;94.80;;;;;;4732077;30;20044;-82
2021/01/26 15:49:06;;;;;;;1.33;1.00;;;9.20;94.70;;;;;;4731416;30;20070;-82
2021/01/26 15:51:33;;;;;;;1.52;0.60;;;9.10;95.00;;;;;;4731944;30;20117;-82
2021/01/26 15:53:59;;;;;;;0.43;0.43;;;9.00;95.20;;;;;;4731959;30;20461;-82
2021/01/26 15:56:26;;;;;;;0.75;0.57;;;8.80;95.40;;;;;;4716693;30;20052;-82
2021/01/26 15:58:52;;;;;;;0.63;0.52;;;8.70;95.70;;;;;;4732409;30;20828;-82
2021/01/26 16:01:18;;;;;;;2.80;0.85;;;8.60;96.00;;;;;;4733561;30;20448;-82
2021/01/26 16:03:44;;;;;;;4.82;1.50;;;8.50;97.80;;;;;;4732287;30;20025;-82
2021/01/26 16:06:12;;;;;;;3.58;1.60;;;8.40;99.30;;;;;;4733508;30;20041;-82
2021/01/26 16:08:39;;;;;;;4.63;1.17;;;8.20;99.90;;;;;;4718077;30;20089;-82
2021/01/26 16:11:05;;;;;;;4.18;1.05;;;8.20;99.90;;;;;;4716443;30;20410;-82
2021/01/26 16:13:32;;;;;;;2.30;0.60;;;8.10;99.90;;;;;;4731396;30;20047;-82
2021/01/26 16:15:58;;;;;;;2.08;1.50;;;8.10;99.90;;;;;;4730751;30;20518;-82
2021/01/26 16:18:24;;;;;;;4.43;0.80;;;8.00;99.90;;;;;;4732361;30;20053;-82
2021/01/26 16:20:51;;;;;;;3.85;1.27;;;7.90;99.90;;;;;;4733167;30;20029;-82
2021/01/26 16:23:17;;;;;;;4.60;0.95;;;7.90;99.90;;;;;;4718662;30;20482;-82
2021/01/26 16:25:44;;;;;;;12.65;1.77;;;7.80;99.90;;;;;;4734654;30;20069;-82
2021/01/26 16:28:11;;;;;;;2.47;1.55;;;7.80;99.90;;;;;;4715386;30;20048;-82
2021/01/26 16:30:39;;;;;;;3.42;1.38;;;7.80;99.90;;;;;;4732443;30;20028;-83
2021/01/26 16:33:05;;;;;;;3.67;1.20;;;7.70;99.90;;;;;;4730370;30;20143;-83
2021/01/26 16:35:32;;;;;;;3.90;1.27;;;7.70;99.90;;;;;;4731906;30;20115;-82
2021/01/26 16:37:58;;;;;;;3.92;1.50;;;7.70;99.90;;;;;;4718105;30;20052;-76
2021/01/26 16:40:27;;;;;;;2.20;1.65;;;7.70;99.90;;;;;;4730515;30;20043;-76
2021/01/26 16:42:54;;;;;;;4.25;1.27;;;7.70;99.90;;;;;;4733873;30;20029;-77
2021/01/26 16:45:23;;;;;;;3.85;1.13;;;7.70;99.90;;;;;;4733729;30;20040;-76
2021/01/26 16:47:51;;;;;;;2.25;1.00;;;7.70;99.90;;;;;;4731186;30;20037;-76
2021/01/26 16:50:27;;;;;;;3.95;1.27;;;7.70;99.90;;;;;;4732199;30;20037;-76
2021/01/26 16:52:53;;;;;;;13.80;1.63;;;7.60;99.90;;;;;;4729979;30;20417;-77
2021/01/26 16:55:20;;;;;;;1.88;0.82;;;7.60;99.90;;;;;;4731407;30;20127;-77
2021/01/26 16:57:46;;;;;;;2.47;0.77;;;7.60;99.90;;;;;;4733795;30;20410;-77
2021/01/26 17:00:20;;;;;;;3.28;1.00;;;7.60;99.90;;;;;;4731301;30;20044;-77
2021/01/26 17:02:46;;;;;;;4.53;1.77;;;7.50;99.90;;;;;;4731361;30;20683;-76
2021/01/26 17:05:13;;;;;;;2.55;0.95;;;7.60;99.90;;;;;;4732699;30;20041;-79
2021/01/26 17:07:39;;;;;;;3.80;1.30;;;7.50;99.90;;;;;;4730627;30;20041;-77
2021/01/26 17:10:06;;;;;;;2.65;1.10;;;7.60;99.90;;;;;;4731784;30;20482;-79
2021/01/26 17:12:33;;;;;;;2.47;0.93;;;7.70;98.50;;;;;;4729758;30;20076;-78
2021/01/26 17:14:59;;;;;;;3.53;1.40;;;7.80;98.70;;;;;;4732790;30;20032;-77
2021/01/26 17:17:27;;;;;;;5.38;1.00;;;7.80;97.10;;;;;;4731671;30;20048;-77
2021/01/26 17:19:55;;;;;;;0.73;0.70;;;7.80;97.30;;;;;;4731277;30;20443;-77
2021/01/26 17:22:23;;;;;;;5.63;1.20;;;7.90;96.50;;;;;;4731075;30;20036;-78
2021/01/26 17:24:50;;;;;;;9.30;1.20;;;7.90;96.60;;;;;;4730486;30;20035;-78
2021/01/26 17:27:18;;;;;;;4.70;0.80;;;7.90;96.50;;;;;;4732910;30;20095;-79
2021/01/26 17:29:44;;;;;;;4.53;1.17;;;7.90;96.50;;;;;;4730849;30;20037;-77
2021/01/26 17:32:11;;;;;;;5.63;1.83;;;8.00;96.70;;;;;;4730557;30;20521;-77
2021/01/26 17:34:38;;;;;;;2.47;1.00;;;7.90;97.30;;;;;;4731000;30;20130;-79
2021/01/26 17:37:05;;;;;;;2.65;1.63;;;8.00;97.40;;;;;;4729538;30;20075;-76
2021/01/26 17:39:32;;;;;;;1.77;0.95;;;7.90;97.40;;;;;;4729428;30;20033;-78
2021/01/26 17:42:05;;;;;;;2.42;1.48;;;8.00;97.40;;;;;;4735926;30;20097;-78
2021/01/26 17:44:33;;;;;;;1.60;0.68;;;8.00;97.50;;;;;;4734242;30;20032;-77
2021/01/26 17:47:00;;;;;;;3.33;0.75;;;8.00;97.10;;;;;;4731466;30;20036;-76
2021/01/26 17:49:27;;;;;;;2.95;1.42;;;8.00;96.90;;;;;;4730644;30;20395;-77
2021/01/26 17:51:53;;;;;;;2.10;0.73;;;8.10;97.00;;;;;;4729895;30;20124;-77
2021/01/26 17:54:20;;;;;;;2.75;1.05;;;8.00;96.30;;;;;;4730246;30;20052;-76
2021/01/26 17:56:47;;;;;;;5.32;1.83;;;8.10;96.20;;;;;;4729600;30;20498;-77
2021/01/26 17:59:17;;;;;;;3.95;0.88;;;8.10;95.70;;;;;;4731520;30;20052;-76
2021/01/26 18:01:45;;;;;;;4.07;0.90;;;8.10;95.60;;;;;;4730151;30;20037;-76
2021/01/26 18:04:13;;;;;;;5.55;0.63;;;8.10;95.40;;;;;;4734421;30;20024;-77
2021/01/26 18:06:40;;;;;;;4.03;1.50;;;8.00;95.50;;;;;;4729561;30;20577;-76
2021/01/26 18:09:07;;;;;;;3.08;1.63;;;8.00;96.10;;;;;;4730917;30;20040;-77
2021/01/26 18:11:34;;;;;;;1.25;1.02;;;8.00;96.00;;;;;;4731933;30;20036;-78
2021/01/26 18:14:00;;;;;;;1.30;0.90;;;7.90;96.00;;;;;;4732187;30;20371;-77
2021/01/26 18:16:26;;;;;;;4.18;1.02;;;7.90;96.00;;;;;;4730380;30;20402;-77
2021/01/26 18:18:52;;;;;;;3.60;1.02;;;7.90;96.10;;;;;;4731031;30;20046;-78
2021/01/26 18:21:19;;;;;;;4.03;2.10;;;8.00;96.10;;;;;;4732390;30;20048;-79
2021/01/26 18:23:45;;;;;;;2.17;1.00;;;7.90;96.20;;;;;;4730279;30;20479;-78
2021/01/26 18:26:12;;;;;;;3.88;1.02;;;7.90;96.60;;;;;;4729403;30;20119;-78
2021/01/26 18:28:38;;;;;;;5.55;1.10;;;7.90;96.90;;;;;;4728891;30;20491;-78
2021/01/26 18:31:05;;;;;;;9.50;1.60;;;7.80;96.90;;;;;;4730955;30;20033;-78
2021/01/26 18:33:32;;;;;;;5.63;2.00;;;7.80;97.20;;;;;;4732882;30;20033;-77
2021/01/26 18:35:58;;;;;;;2.63;1.20;;;7.80;96.80;;;;;;4729714;30;20041;-77
2021/01/26 18:38:25;;;;;;;8.05;1.55;;;7.80;97.10;;;;;;4730967;30;20048;-78
2021/01/26 18:40:51;;;;;;;2.85;1.83;;;7.90;97.10;;;;;;4729206;30;20032;-77
2021/01/26 18:43:18;;;;;;;3.17;1.10;;;7.90;96.80;;;;;;4730760;30;20058;-77
2021/01/26 18:45:44;;;;;;;7.03;1.30;;;7.90;96.70;;;;;;4732749;30;20094;-77
2021/01/26 18:48:12;;;;;;;4.07;1.05;;;8.00;96.80;;;;;;4733897;30;20028;-77
2021/01/26 18:50:41;;;;;;;3.33;1.25;;;8.00;96.30;;;;;;4732059;30;20033;-77
2021/01/26 18:53:09;;;;;;;5.05;1.63;;;8.00;96.40;;;;;;4734022;30;20064;-78
2021/01/26 18:55:35;;;;;;;5.00;1.38;;;8.00;96.80;;;;;;4733003;30;20136;-78
2021/01/26 18:58:01;;;;;;;5.30;1.90;;;7.90;97.80;;;;;;4734323;30;20082;-78
2021/01/26 19:00:28;;;;;;;3.75;1.55;;;7.90;98.90;;;;;;4733202;30;20033;-78
2021/01/26 19:02:56;;;;;;;4.63;1.30;;;7.80;99.60;;;;;;4735281;30;20032;-76
2021/01/26 19:05:24;;;;;;;1.63;1.27;;;7.70;99.90;;;;;;4736023;30;20477;-78
2021/01/26 19:07:51;;;;;;;7.85;1.45;;;7.60;99.90;;;;;;4733005;30;20033;-79
2021/01/26 19:10:20;;;;;;;3.17;1.70;;;7.60;99.70;;;;;;4733433;30;20039;-78
2021/01/26 19:12:47;;;;;;;2.00;0.80;;;7.60;99.80;;;;;;4733205;30;20491;-80
2021/01/26 19:15:16;;;;;;;1.67;1.17;;;7.50;99.90;;;;;;4736297;30;20474;-80
2021/01/26 19:17:43;;;;;;;3.20;1.70;;;7.30;99.90;;;;;;4732466;30;20045;-77
2021/01/26 19:20:10;;;;;;;1.05;0.50;;;7.20;99.90;;;;;;4733626;30;20086;-78
2021/01/26 19:22:36;;;;;;;2.25;1.33;;;7.00;99.90;;;;;;4735734;30;20055;-77
2021/01/26 19:25:08;;;;;;;4.32;0.88;;;7.00;99.90;;;;;;4732905;30;20934;-77
2021/01/26 19:27:35;;;;;;;1.98;0.70;;;6.90;99.90;;;;;;4732016;30;20542;-77